»·PEaware :: N6182G KSNA-KSBD

N6182G :: KSNA-KSBD

FLIGHT INFORMATION

Flight Status: Arrived
Operator: Privately registered:
United States
More flights under this callsign
Pilot: Paul A. (20189)
Aircraft: CESSNA 182 SKYLANE
(C182)
More flights by this aircraft type
Origin: KSNA John Wayne-Orange Co
United States
Destination: KSBD San Bernardino Intl
United States
More flights between these airports :: More routes between these airports
Route: +CSTP13
File this flight plan on PilotEdge
Remarks: I4 Rating
Altitude:
(Current/Filed)
5,000ft
Speed:
(Current/Filed)
120kts
Departed: 25-Sep-18 10:54 AM
Arrived: 25-Sep-18 11:30 AM
Distance/Time
Traveled:
40nm/0:36
Distance/Time
To Go:
Arrived

Flight Plot

Page will automatically refresh every two minutes.

Flight plan parsing failed; only flown route is shown


Map Options




Map Legend


Flown Route
Filed Route
Departure Airport
Arrival Airport
Navaid (VOR, NDB)
Fix

Horizontal Profiles

Position Reports

Time Latitude Longitude Heading Altitude Ground
Speed
25-Sep-18 10:43 33.667051 -117.871600 29 59ft 0kts
25-Sep-18 10:44 33.667052 -117.871599 29 59ft 0kts
25-Sep-18 10:45 33.667054 -117.871598 29 59ft 0kts
25-Sep-18 10:46 33.667055 -117.871598 29 59ft 0kts
25-Sep-18 10:47 33.667056 -117.871597 29 59ft 0kts
25-Sep-18 10:48 33.667057 -117.871596 29 59ft 0kts
25-Sep-18 10:49 33.667058 -117.871595 29 59ft 0kts
25-Sep-18 10:50 33.667153 -117.871594 318 59ft 6kts
25-Sep-18 10:51 33.670080 -117.869939 40 59ft 14kts
25-Sep-18 10:52 33.672737 -117.867717 35 59ft 9kts
25-Sep-18 10:53 33.675210 -117.866405 27 59ft 15kts
25-Sep-18 10:54 33.678975 -117.864032 27 59ft 15kts
25-Sep-18 10:55 33.680006 -117.863815 295 59ft 10kts
25-Sep-18 10:56 33.669163 -117.874076 240 601ft 78kts
25-Sep-18 10:57 33.656485 -117.903019 242 1482ft 115kts
25-Sep-18 10:58 33.641050 -117.939285 242 1986ft 122kts
25-Sep-18 10:59 33.626054 -117.974145 242 1998ft 115kts
25-Sep-18 11:00 33.611370 -118.008189 242 2000ft 114kts
25-Sep-18 11:01 33.596737 -118.042101 242 2001ft 114kts
25-Sep-18 11:02 33.584209 -118.075387 279 2581ft 108kts
25-Sep-18 11:03 33.609384 -118.080094 6 3576ft 105kts
25-Sep-18 11:04 33.638461 -118.076062 6 4565ft 104kts
25-Sep-18 11:05 33.669903 -118.071432 7 5003ft 129kts
25-Sep-18 11:06 33.706516 -118.065981 7 5001ft 134kts
25-Sep-18 11:07 33.742742 -118.060658 7 4987ft 126kts
25-Sep-18 11:08 33.776220 -118.055355 17 4997ft 122kts
25-Sep-18 11:09 33.792005 -118.021512 73 5007ft 121kts
25-Sep-18 11:10 33.802294 -117.981407 72 5004ft 128kts
25-Sep-18 11:11 33.812966 -117.940177 72 5000ft 129kts
25-Sep-18 11:12 33.823715 -117.898607 72 5000ft 129kts
25-Sep-18 11:13 33.834399 -117.857235 72 5000ft 130kts
25-Sep-18 11:14 33.845098 -117.815743 72 5000ft 129kts
25-Sep-18 11:15 33.855745 -117.774215 73 5000ft 129kts
25-Sep-18 11:16 33.865939 -117.732544 72 5000ft 129kts
25-Sep-18 11:17 33.876773 -117.691006 72 5000ft 129kts
25-Sep-18 11:18 33.891524 -117.652147 52 4542ft 116kts
25-Sep-18 11:19 33.910836 -117.621688 52 3547ft 112kts
25-Sep-18 11:20 33.930858 -117.590172 52 3209ft 127kts
25-Sep-18 11:21 33.951604 -117.557427 52 3193ft 119kts
25-Sep-18 11:22 33.971594 -117.525915 52 3199ft 117kts
25-Sep-18 11:23 33.991510 -117.494511 52 3200ft 117kts
25-Sep-18 11:24 34.010804 -117.462791 67 3204ft 117kts
25-Sep-18 11:25 34.020604 -117.425279 72 3204ft 118kts
25-Sep-18 11:26 34.034992 -117.393813 49 3126ft 96kts
25-Sep-18 11:27 34.053254 -117.368480 53 2595ft 101kts
25-Sep-18 11:28 34.064717 -117.341508 73 2279ft 88kts
25-Sep-18 11:29 34.072841 -117.312121 72 1827ft 92kts
25-Sep-18 11:30 34.080621 -117.284851 69 1513ft 80kts
25-Sep-18 11:31 34.087828 -117.260558 70 1286ft 71kts
25-Sep-18 11:32 34.093359 -117.242234 33 1122ft 12kts
25-Sep-18 11:33 34.094506 -117.242136 358 1122ft 12kts
25-Sep-18 11:34 34.095968 -117.243403 321 1122ft 0kts
25-Sep-18 11:35 34.095969 -117.243404 321 1122ft 0kts
25-Sep-18 11:36 34.095970 -117.243405 321 1122ft 0kts
25-Sep-18 11:37 34.095971 -117.243406 321 1122ft 0kts
25-Sep-18 11:38 34.095972 -117.243407 321 1122ft 0kts

Navigation Log

Ident Type
Flight plan parsing failed, navigation log unavailable